Chie Maru — JL6639 — position and weather

sailwx.info

Track history (hours):
 
Tides and Currents Weather Stations Pressure Air Temp Water Temp Dewpoint Dewpoint Depression Visibility Wind Speed Wind Dir Waves Ship Positions

Chie Maru

Last reported at 2017-Sep-24 14:35 UTC. Time now 2017-Sep-24 19:10 UTC.
Position N 34°04' E 134°60'.

Length 103 m; draft 6.7 m.

Type: Tanker. MMSI: 431501653.

Date/timePositionNaut miles runAvg speedWind from/ knotsBaromVisibWave heightAir tempDewpointWater temp
2017-Sep-24 14:35N 34°04' E 134°60'111.4
2017-Sep-24 14:28N 34°05' E 134°60'611.3
2017-Sep-24 13:58N 34°11' E 134°59'610.9
2017-Sep-24 13:24N 34°17' E 134°59'410.7
2017-Sep-24 12:59N 34°21' E 134°59'510.9
2017-Sep-24 12:30N 34°26' E 135°01'510.5
2017-Sep-24 12:00N 34°31' E 135°03'5 9.5
2017-Sep-24 11:30N 34°36' E 135°02'5 9.5
2017-Sep-24 11:00N 34°36' E 134°57'  
Track history (hours):
 
Tides and Currents Weather Stations Pressure Air Temp Water Temp Dewpoint Dewpoint Depression Visibility Wind Speed Wind Dir Waves Ship Positions

Chie Maru

Last reported at 2017-Sep-24 14:35 UTC. Time now 2017-Sep-24 19:10 UTC.
Position N 34°04' E 134°60'.

Length 103 m; draft 6.7 m.

Type: Tanker. MMSI: 431501653.

Date/timePositionNaut miles runAvg speedWind from/ knotsBaromVisibWave heightAir tempDewpointWater temp
2017-Sep-24 14:35N 34°04' E 134°60'111.4
2017-Sep-24 14:28N 34°05' E 134°60'611.3
2017-Sep-24 13:58N 34°11' E 134°59'610.9
2017-Sep-24 13:24N 34°17' E 134°59'410.7
2017-Sep-24 12:59N 34°21' E 134°59'510.9
2017-Sep-24 12:30N 34°26' E 135°01'510.5
2017-Sep-24 12:00N 34°31' E 135°03'5 9.5
2017-Sep-24 11:30N 34°36' E 135°02'5 9.5
2017-Sep-24 11:00N 34°36' E 134°57'  

Dump ship's entire track history